Terminal Aerodrome Forecast
Issued by NWS

Home | Current Version | Previous Version | Text Only | Print | Product List | Glossary On
Versions: 1 2 3 4 5 6 7 8 9 10 11 12
000
FTUS45 KRIW 111100
TAFLND
TAF
KLND 111134Z 1112/1212 VRB05KT P6SM SCT100 SCT200
     FM111800 VRB05KT P6SM VCSH SCT100 BKN150
     FM112000 05006KT P6SM VCTS SCT070CB BKN120
     FM120300 25007KT P6SM SCT090 BKN150
     FM120800 VRB05KT P6SM SCT110=

USA.gov is the U.S. government's official web portal to all federal, state and local government web resources and services.